Terminal Aerodrome Forecast
Issued by NWS

Home | Current Version | Previous Version | Text Only | Print | Product List | Glossary On
Versions: 1 2 3 4 5 6 7 8 9 10 11 12 13 14 15 16
000
FTUS42 KTBW 211900 CCA
TAFRSW
TAF COR
KRSW 211942Z 2118/2218 VRB03KT P6SM VCTS SCT030CB BKN090
      TEMPO 2118/2120 VRB15G25KT 3SM TSRA BKN025CB
     FM220000 00000KT P6SM VCTS SCT035CB BKN250
     FM220600 00000KT P6SM BKN100 BKN250
     FM221400 VRB06KT P6SM VCSH SCT030 BKN100=

USA.gov is the U.S. government's official web portal to all federal, state and local government web resources and services.